Clinton, British Columbia

4:53 AM PST on December 08, 2016 (GMT -0800)
Bleibler Ranch | | Change Station

Elev 3698 ft 51.27 °N, 121.68 °W | Updated 16 minutes ago

Partly Cloudy
Partly Cloudy
-6 °F
Feels Like -6 °F
N
2
Wind Variable Wind from Variable

Today
High -- | Low -- °F
--% Chance of Precip.
Yesterday
High -- | Low -- °F
Precip. -- in
Pressure 30.68 in
Visibility 9.0 miles
Clouds Overcast 700 ft
Dew Point -9 °F
Humidity 84%
Rainfall 0.00 in
Snow Depth Not available.
7:57 AM 3:58 PM
Waxing Gibbous, 63% visible
SPECI CYIN 081237Z AUTO VRB02KT 9SM OVC007 M21/M23 A3036 RMK SLP388
Pressure 30.68 in
Visibility 9.0 miles
Clouds Overcast 700 ft
Dew Point -9 °F
Humidity 84%
Rainfall 0.00 in
Snow Depth Not available.
7:57 AM 3:58 PM
Waxing Gibbous, 63% visible
SPECI CYIN 081237Z AUTO VRB02KT 9SM OVC007 M21/M23 A3036 RMK SLP388

10-Day Weather Forecast

Almanac

Astronomy

Dec. 08, 2016 Rise Set
Actual Time
Civil Twilight
Nautical Twilight
Astronomical Twilight
Moon
Length of Visible Light
Length of Day
Tomorrow will be .
, % of the Moon is Illuminated

Today's Extremes

Country Highs Country Lows

Community

WunderPhotos

Upload Photos

1,956,267 photos uploaded!

WunderBlog® & News

Nearby

Air Quality

  Air Quality AQ Index Pollutant
Not available.

Snow Depth

Station Depth Elevation

Earthquake Activity

City Distance Mag. Time & Date
Minimum magnitude displayed is 2.5.

Coastal Water Temperatures

Place Temperature

Stations

Nearby Weather Stations

Station Location Temp. Windchill Dew Point Humidity Wind Precip. Elev Updated Type
                   

Watches & Warnings

There are currently no watches in effect.